sensor_id;sensor_type;location;lat;lon;timestamp;pressure;altitude;pressure_sealevel;temperature;humidity
56992;BME280;42885;49.754;18.636;2023-04-23T00:01:49;97972.92;;;11.83;100.00
56992;BME280;42885;49.754;18.636;2023-04-23T00:04:22;97965.37;;;11.60;100.00
56992;BME280;42885;49.754;18.636;2023-04-23T00:06:55;97968.11;;;11.19;100.00
56992;BME280;42885;49.754;18.636;2023-04-23T00:09:34;97966.58;;;11.22;100.00
56992;BME280;42885;49.754;18.636;2023-04-23T00:12:02;97971.03;;;11.01;100.00
56992;BME280;42885;49.754;18.636;2023-04-23T00:14:33;97963.38;;;11.24;100.00
56992;BME280;42885;49.754;18.636;2023-04-23T00:17:04;97971.48;;;11.53;100.00
56992;BME280;42885;49.754;18.636;2023-04-23T00:19:35;97966.98;;;11.68;100.00
56992;BME280;42885;49.754;18.636;2023-04-23T00:22:06;97962.46;;;11.70;100.00
56992;BME280;42885;49.754;18.636;2023-04-23T00:24:37;97961.13;;;11.83;100.00
56992;BME280;42885;49.754;18.636;2023-04-23T00:27:08;97959.55;;;11.80;100.00
56992;BME280;42885;49.754;18.636;2023-04-23T00:29:39;97958.43;;;11.72;100.00
56992;BME280;42885;49.754;18.636;2023-04-23T00:32:10;97957.88;;;11.48;100.00
56992;BME280;42885;49.754;18.636;2023-04-23T00:34:41;97953.25;;;11.64;100.00
56992;BME280;42885;49.754;18.636;2023-04-23T00:37:12;97959.31;;;11.65;100.00
56992;BME280;42885;49.754;18.636;2023-04-23T00:39:43;97957.35;;;11.74;100.00
56992;BME280;42885;49.754;18.636;2023-04-23T00:42:15;97957.05;;;11.66;100.00
56992;BME280;42885;49.754;18.636;2023-04-23T00:44:47;97951.33;;;11.48;100.00
56992;BME280;42885;49.754;18.636;2023-04-23T00:47:18;97956.97;;;11.54;100.00
56992;BME280;42885;49.754;18.636;2023-04-23T00:49:50;97956.33;;;11.64;100.00
56992;BME280;42885;49.754;18.636;2023-04-23T00:52:21;97954.42;;;11.21;100.00
56992;BME280;42885;49.754;18.636;2023-04-23T00:54:53;97952.12;;;11.29;100.00
56992;BME280;42885;49.754;18.636;2023-04-23T00:57:24;97951.30;;;11.29;100.00
56992;BME280;42885;49.754;18.636;2023-04-23T00:59:55;97951.79;;;11.47;100.00
56992;BME280;42885;49.754;18.636;2023-04-23T01:02:28;97942.59;;;11.28;100.00
56992;BME280;42885;49.754;18.636;2023-04-23T01:05:01;97949.66;;;11.47;100.00
56992;BME280;42885;49.754;18.636;2023-04-23T01:07:34;97950.28;;;11.50;100.00
56992;BME280;42885;49.754;18.636;2023-04-23T01:10:06;97949.39;;;11.44;100.00
56992;BME280;42885;49.754;18.636;2023-04-23T01:12:38;97951.34;;;11.09;100.00
56992;BME280;42885;49.754;18.636;2023-04-23T01:15:10;97951.13;;;11.25;100.00
56992;BME280;42885;49.754;18.636;2023-04-23T01:17:41;97952.06;;;11.37;100.00
56992;BME280;42885;49.754;18.636;2023-04-23T01:20:12;97955.22;;;10.83;100.00
56992;BME280;42885;49.754;18.636;2023-04-23T01:22:43;97954.95;;;11.00;100.00
56992;BME280;42885;49.754;18.636;2023-04-23T01:25:14;97956.22;;;11.34;100.00
56992;BME280;42885;49.754;18.636;2023-04-23T01:27:45;97953.33;;;11.05;100.00
56992;BME280;42885;49.754;18.636;2023-04-23T01:30:16;97953.74;;;11.12;100.00
56992;BME280;42885;49.754;18.636;2023-04-23T01:32:50;97952.81;;;11.57;100.00
56992;BME280;42885;49.754;18.636;2023-04-23T01:35:22;97953.42;;;11.74;100.00
56992;BME280;42885;49.754;18.636;2023-04-23T01:37:53;97953.58;;;11.97;100.00
56992;BME280;42885;49.754;18.636;2023-04-23T01:40:24;97951.81;;;11.97;100.00
56992;BME280;42885;49.754;18.636;2023-04-23T01:42:56;97950.13;;;12.09;100.00
56992;BME280;42885;49.754;18.636;2023-04-23T01:45:27;97945.67;;;11.54;100.00
56992;BME280;42885;49.754;18.636;2023-04-23T01:47:59;97946.11;;;11.85;100.00
56992;BME280;42885;49.754;18.636;2023-04-23T01:50:31;97940.48;;;12.16;99.28
56992;BME280;42885;49.754;18.636;2023-04-23T01:53:02;97949.19;;;11.97;100.00
56992;BME280;42885;49.754;18.636;2023-04-23T01:55:35;97940.17;;;12.20;97.62
56992;BME280;42885;49.754;18.636;2023-04-23T01:58:07;97941.13;;;11.88;98.94
56992;BME280;42885;49.754;18.636;2023-04-23T02:00:38;97940.89;;;12.22;93.83
56992;BME280;42885;49.754;18.636;2023-04-23T02:03:09;97930.97;;;12.45;91.34
56992;BME280;42885;49.754;18.636;2023-04-23T02:05:40;97937.52;;;11.83;96.45
56992;BME280;42885;49.754;18.636;2023-04-23T02:08:11;97936.26;;;12.07;96.45
56992;BME280;42885;49.754;18.636;2023-04-23T02:10:42;97935.67;;;12.04;98.08
56992;BME280;42885;49.754;18.636;2023-04-23T02:13:13;97929.55;;;12.22;94.61
56992;BME280;42885;49.754;18.636;2023-04-23T02:15:44;97924.71;;;12.29;91.66
56992;BME280;42885;49.754;18.636;2023-04-23T02:18:15;97928.51;;;11.87;94.60
56992;BME280;42885;49.754;18.636;2023-04-23T02:20:46;97927.52;;;12.20;92.95
56992;BME280;42885;49.754;18.636;2023-04-23T02:23:18;97923.58;;;12.01;95.01
56992;BME280;42885;49.754;18.636;2023-04-23T02:25:49;97914.77;;;12.21;91.30
56992;BME280;42885;49.754;18.636;2023-04-23T02:28:21;97913.09;;;12.20;92.52
56992;BME280;42885;49.754;18.636;2023-04-23T02:30:52;97917.74;;;12.22;92.72
56992;BME280;42885;49.754;18.636;2023-04-23T02:33:23;97916.23;;;12.06;91.81
56992;BME280;42885;49.754;18.636;2023-04-23T02:35:54;97913.91;;;12.02;93.65
56992;BME280;42885;49.754;18.636;2023-04-23T02:38:25;97917.70;;;12.10;92.01
56992;BME280;42885;49.754;18.636;2023-04-23T02:40:56;97906.98;;;12.38;87.63
56992;BME280;42885;49.754;18.636;2023-04-23T02:43:27;97904.03;;;12.48;85.59
56992;BME280;42885;49.754;18.636;2023-04-23T02:45:58;97901.70;;;12.74;82.74
56992;BME280;42885;49.754;18.636;2023-04-23T02:48:28;97900.69;;;12.99;79.81
56992;BME280;42885;49.754;18.636;2023-04-23T02:51:00;97903.34;;;13.16;77.50
56992;BME280;42885;49.754;18.636;2023-04-23T02:53:32;97907.88;;;13.37;74.10
56992;BME280;42885;49.754;18.636;2023-04-23T02:56:03;97907.52;;;13.70;71.99
56992;BME280;42885;49.754;18.636;2023-04-23T02:58:34;97910.23;;;13.92;69.58
56992;BME280;42885;49.754;18.636;2023-04-23T03:01:06;97904.17;;;14.24;66.71
56992;BME280;42885;49.754;18.636;2023-04-23T03:03:37;97905.13;;;14.23;66.42
56992;BME280;42885;49.754;18.636;2023-04-23T03:06:08;97904.75;;;14.27;65.46
56992;BME280;42885;49.754;18.636;2023-04-23T03:08:39;97900.34;;;14.28;65.20
56992;BME280;42885;49.754;18.636;2023-04-23T03:11:10;97903.76;;;14.34;64.97
56992;BME280;42885;49.754;18.636;2023-04-23T03:13:41;97903.53;;;14.37;64.39
56992;BME280;42885;49.754;18.636;2023-04-23T03:16:12;97896.27;;;14.51;63.79
56992;BME280;42885;49.754;18.636;2023-04-23T03:18:44;97896.00;;;14.59;62.91
56992;BME280;42885;49.754;18.636;2023-04-23T03:21:15;97892.09;;;14.54;62.59
56992;BME280;42885;49.754;18.636;2023-04-23T03:23:45;97893.91;;;14.48;62.36
56992;BME280;42885;49.754;18.636;2023-04-23T03:26:16;97889.84;;;14.43;62.65
56992;BME280;42885;49.754;18.636;2023-04-23T03:28:47;97890.85;;;14.58;61.43
56992;BME280;42885;49.754;18.636;2023-04-23T03:31:19;97893.88;;;14.53;61.53
56992;BME280;42885;49.754;18.636;2023-04-23T03:33:50;97897.31;;;14.59;61.27
56992;BME280;42885;49.754;18.636;2023-04-23T03:36:22;97890.77;;;14.54;60.84
56992;BME280;42885;49.754;18.636;2023-04-23T03:38:53;97895.64;;;14.85;59.70
56992;BME280;42885;49.754;18.636;2023-04-23T03:41:24;97888.95;;;14.54;60.50
56992;BME280;42885;49.754;18.636;2023-04-23T03:43:55;97893.28;;;14.50;61.57
56992;BME280;42885;49.754;18.636;2023-04-23T03:46:31;97890.69;;;14.44;61.17
56992;BME280;42885;49.754;18.636;2023-04-23T03:49:02;97901.71;;;14.38;60.89
56992;BME280;42885;49.754;18.636;2023-04-23T03:51:34;97895.56;;;14.49;60.15
56992;BME280;42885;49.754;18.636;2023-04-23T03:54:05;97890.42;;;14.53;60.46
56992;BME280;42885;49.754;18.636;2023-04-23T03:56:49;97894.98;;;14.45;60.71
56992;BME280;42885;49.754;18.636;2023-04-23T03:59:27;97898.78;;;14.52;60.52
56992;BME280;42885;49.754;18.636;2023-04-23T04:02:00;97893.52;;;14.52;60.16
56992;BME280;42885;49.754;18.636;2023-04-23T04:04:32;97900.88;;;14.64;59.57
56992;BME280;42885;49.754;18.636;2023-04-23T04:07:05;97902.09;;;14.60;59.91
56992;BME280;42885;49.754;18.636;2023-04-23T04:09:38;97898.67;;;14.54;60.12
56992;BME280;42885;49.754;18.636;2023-04-23T04:12:09;97898.17;;;14.54;59.74
56992;BME280;42885;49.754;18.636;2023-04-23T04:14:41;97896.47;;;14.59;59.35
56992;BME280;42885;49.754;18.636;2023-04-23T04:17:12;97895.19;;;14.53;60.25
56992;BME280;42885;49.754;18.636;2023-04-23T04:19:44;97897.62;;;14.45;60.39
56992;BME280;42885;49.754;18.636;2023-04-23T04:22:15;97903.75;;;14.67;59.63
56992;BME280;42885;49.754;18.636;2023-04-23T04:24:46;97898.72;;;14.64;59.53
56992;BME280;42885;49.754;18.636;2023-04-23T04:27:17;97896.16;;;14.79;58.85
56992;BME280;42885;49.754;18.636;2023-04-23T04:29:48;97902.62;;;14.81;58.28
56992;BME280;42885;49.754;18.636;2023-04-23T04:32:21;97901.38;;;14.85;58.46
56992;BME280;42885;49.754;18.636;2023-04-23T04:34:52;97898.92;;;14.99;57.94
56992;BME280;42885;49.754;18.636;2023-04-23T04:37:23;97900.10;;;14.79;58.64
56992;BME280;42885;49.754;18.636;2023-04-23T04:39:54;97895.38;;;14.89;58.22
56992;BME280;42885;49.754;18.636;2023-04-23T04:42:25;97899.86;;;14.98;58.09
56992;BME280;42885;49.754;18.636;2023-04-23T04:44:57;97892.02;;;15.08;57.25
56992;BME280;42885;49.754;18.636;2023-04-23T04:47:28;97897.64;;;15.24;57.22
56992;BME280;42885;49.754;18.636;2023-04-23T04:49:59;97899.47;;;15.24;56.93
56992;BME280;42885;49.754;18.636;2023-04-23T04:52:30;97898.69;;;15.43;55.84
56992;BME280;42885;49.754;18.636;2023-04-23T04:55:02;97898.22;;;15.44;55.30
56992;BME280;42885;49.754;18.636;2023-04-23T04:57:34;97890.47;;;15.52;54.56
56992;BME280;42885;49.754;18.636;2023-04-23T05:00:22;97893.68;;;15.55;54.84
56992;BME280;42885;49.754;18.636;2023-04-23T05:02:59;97897.86;;;15.58;53.88
56992;BME280;42885;49.754;18.636;2023-04-23T05:05:31;97905.78;;;15.68;53.65
56992;BME280;42885;49.754;18.636;2023-04-23T05:08:05;97901.86;;;15.78;53.25
56992;BME280;42885;49.754;18.636;2023-04-23T05:10:37;97895.70;;;15.83;52.34
56992;BME280;42885;49.754;18.636;2023-04-23T05:13:08;97889.80;;;15.85;52.83
56992;BME280;42885;49.754;18.636;2023-04-23T05:15:39;97891.99;;;15.95;52.01
56992;BME280;42885;49.754;18.636;2023-04-23T05:18:10;97892.92;;;16.10;51.21
56992;BME280;42885;49.754;18.636;2023-04-23T05:20:41;97895.70;;;16.18;50.74
56992;BME280;42885;49.754;18.636;2023-04-23T05:23:12;97897.39;;;16.29;50.65
56992;BME280;42885;49.754;18.636;2023-04-23T05:25:43;97882.22;;;16.51;49.72
56992;BME280;42885;49.754;18.636;2023-04-23T05:28:14;97882.37;;;16.49;49.81
56992;BME280;42885;49.754;18.636;2023-04-23T05:30:45;97880.68;;;16.68;48.54
56992;BME280;42885;49.754;18.636;2023-04-23T05:33:16;97878.59;;;16.72;48.54
56992;BME280;42885;49.754;18.636;2023-04-23T05:35:47;97883.61;;;16.89;48.48
56992;BME280;42885;49.754;18.636;2023-04-23T05:38:18;97889.33;;;17.04;47.39
56992;BME280;42885;49.754;18.636;2023-04-23T05:40:49;97882.05;;;17.02;47.46
56992;BME280;42885;49.754;18.636;2023-04-23T05:43:20;97880.58;;;17.17;46.92
56992;BME280;42885;49.754;18.636;2023-04-23T05:45:51;97883.16;;;17.37;46.80
56992;BME280;42885;49.754;18.636;2023-04-23T05:48:22;97887.71;;;17.45;46.13
56992;BME280;42885;49.754;18.636;2023-04-23T05:50:52;97884.89;;;17.56;45.83
56992;BME280;42885;49.754;18.636;2023-04-23T05:53:23;97890.42;;;17.49;45.65
56992;BME280;42885;49.754;18.636;2023-04-23T05:55:55;97892.48;;;17.69;45.34
56992;BME280;42885;49.754;18.636;2023-04-23T05:58:26;97883.20;;;17.83;44.76
56992;BME280;42885;49.754;18.636;2023-04-23T06:00:57;97883.97;;;17.94;44.78
56992;BME280;42885;49.754;18.636;2023-04-23T06:03:28;97885.03;;;18.01;45.35
56992;BME280;42885;49.754;18.636;2023-04-23T06:05:59;97881.13;;;18.05;44.71
56992;BME280;42885;49.754;18.636;2023-04-23T06:08:30;97883.70;;;18.15;44.80
56992;BME280;42885;49.754;18.636;2023-04-23T06:11:01;97878.73;;;18.12;44.36
56992;BME280;42885;49.754;18.636;2023-04-23T06:13:32;97884.38;;;18.17;44.38
56992;BME280;42885;49.754;18.636;2023-04-23T06:16:11;97875.45;;;18.36;43.77
56992;BME280;42885;49.754;18.636;2023-04-23T06:18:37;97875.40;;;18.50;43.71
56992;BME280;42885;49.754;18.636;2023-04-23T06:21:08;97875.97;;;18.58;43.15
56992;BME280;42885;49.754;18.636;2023-04-23T06:23:39;97876.39;;;18.71;43.08
56992;BME280;42885;49.754;18.636;2023-04-23T06:26:10;97883.77;;;18.82;42.96
56992;BME280;42885;49.754;18.636;2023-04-23T06:28:43;97890.12;;;19.11;42.04
56992;BME280;42885;49.754;18.636;2023-04-23T06:31:19;97880.11;;;19.36;41.99
56992;BME280;42885;49.754;18.636;2023-04-23T06:33:50;97882.84;;;19.52;41.03
56992;BME280;42885;49.754;18.636;2023-04-23T06:36:21;97886.48;;;19.51;41.46
56992;BME280;42885;49.754;18.636;2023-04-23T06:38:52;97881.27;;;19.72;40.70
56992;BME280;42885;49.754;18.636;2023-04-23T06:41:23;97881.31;;;19.89;40.53
56992;BME280;42885;49.754;18.636;2023-04-23T06:43:56;97880.65;;;19.91;40.97
56992;BME280;42885;49.754;18.636;2023-04-23T06:46:28;97874.67;;;19.93;40.82
56992;BME280;42885;49.754;18.636;2023-04-23T06:48:59;97875.52;;;19.93;40.12
56992;BME280;42885;49.754;18.636;2023-04-23T06:51:30;97873.42;;;20.18;40.35
56992;BME280;42885;49.754;18.636;2023-04-23T06:54:01;97873.42;;;20.18;40.12
56992;BME280;42885;49.754;18.636;2023-04-23T06:56:32;97873.78;;;20.40;40.10
56992;BME280;42885;49.754;18.636;2023-04-23T06:59:03;97857.14;;;20.54;39.85
56992;BME280;42885;49.754;18.636;2023-04-23T07:01:35;97868.63;;;20.38;39.45
56992;BME280;42885;49.754;18.636;2023-04-23T07:04:06;97862.48;;;20.42;39.36
56992;BME280;42885;49.754;18.636;2023-04-23T07:06:37;97858.81;;;20.51;39.10
56992;BME280;42885;49.754;18.636;2023-04-23T07:09:09;97854.02;;;20.59;39.31
56992;BME280;42885;49.754;18.636;2023-04-23T07:11:42;97851.83;;;20.67;38.94
56992;BME280;42885;49.754;18.636;2023-04-23T07:14:13;97852.15;;;20.76;38.61
56992;BME280;42885;49.754;18.636;2023-04-23T07:16:45;97847.48;;;20.78;38.85
56992;BME280;42885;49.754;18.636;2023-04-23T07:19:17;97844.83;;;20.82;38.74
56992;BME280;42885;49.754;18.636;2023-04-23T07:21:48;97846.16;;;20.78;38.20
56992;BME280;42885;49.754;18.636;2023-04-23T07:24:19;97849.66;;;20.95;38.76
56992;BME280;42885;49.754;18.636;2023-04-23T07:26:51;97847.55;;;21.35;38.32
56992;BME280;42885;49.754;18.636;2023-04-23T07:29:22;97840.02;;;21.42;38.19
56992;BME280;42885;49.754;18.636;2023-04-23T07:31:52;97845.86;;;21.38;38.11
56992;BME280;42885;49.754;18.636;2023-04-23T07:34:23;97843.00;;;21.48;37.13
56992;BME280;42885;49.754;18.636;2023-04-23T07:36:55;97838.72;;;21.38;37.08
56992;BME280;42885;49.754;18.636;2023-04-23T07:39:26;97838.92;;;21.64;37.39
56992;BME280;42885;49.754;18.636;2023-04-23T07:41:57;97836.52;;;21.82;36.09
56992;BME280;42885;49.754;18.636;2023-04-23T07:44:29;97834.66;;;22.10;38.33
56992;BME280;42885;49.754;18.636;2023-04-23T07:46:59;97826.88;;;22.04;36.56
56992;BME280;42885;49.754;18.636;2023-04-23T07:49:30;97823.43;;;21.95;36.29
56992;BME280;42885;49.754;18.636;2023-04-23T07:52:01;97832.36;;;22.07;35.29
56992;BME280;42885;49.754;18.636;2023-04-23T07:54:32;97829.16;;;22.11;35.00
56992;BME280;42885;49.754;18.636;2023-04-23T07:57:03;97826.66;;;22.14;34.90
56992;BME280;42885;49.754;18.636;2023-04-23T07:59:34;97825.54;;;22.47;35.35
56992;BME280;42885;49.754;18.636;2023-04-23T08:02:07;97828.65;;;22.35;34.58
56992;BME280;42885;49.754;18.636;2023-04-23T08:04:38;97823.47;;;22.14;35.16
56992;BME280;42885;49.754;18.636;2023-04-23T08:07:09;97825.45;;;21.93;34.62
56992;BME280;42885;49.754;18.636;2023-04-23T08:09:40;97816.50;;;22.33;35.49
56992;BME280;42885;49.754;18.636;2023-04-23T08:12:11;97816.26;;;22.62;34.03
56992;BME280;42885;49.754;18.636;2023-04-23T08:14:43;97812.47;;;22.75;34.51
56992;BME280;42885;49.754;18.636;2023-04-23T08:17:16;97819.39;;;22.65;34.05
56992;BME280;42885;49.754;18.636;2023-04-23T08:19:47;97810.27;;;22.79;34.87
56992;BME280;42885;49.754;18.636;2023-04-23T08:22:18;97806.44;;;22.77;34.96
56992;BME280;42885;49.754;18.636;2023-04-23T08:24:49;97804.95;;;22.60;35.05
56992;BME280;42885;49.754;18.636;2023-04-23T08:27:20;97807.00;;;22.53;34.47
56992;BME280;42885;49.754;18.636;2023-04-23T08:29:51;97809.55;;;22.47;34.16
56992;BME280;42885;49.754;18.636;2023-04-23T08:32:23;97809.48;;;22.74;34.83
56992;BME280;42885;49.754;18.636;2023-04-23T08:34:55;97808.28;;;23.07;34.48
56992;BME280;42885;49.754;18.636;2023-04-23T08:37:28;97802.04;;;23.15;34.91
56992;BME280;42885;49.754;18.636;2023-04-23T08:40:00;97804.63;;;23.08;33.95
56992;BME280;42885;49.754;18.636;2023-04-23T08:42:44;97803.19;;;23.01;34.94
56992;BME280;42885;49.754;18.636;2023-04-23T08:45:15;97797.69;;;22.88;31.31
56992;BME280;42885;49.754;18.636;2023-04-23T08:47:48;97805.94;;;23.23;31.21
56992;BME280;42885;49.754;18.636;2023-04-23T08:50:19;97797.94;;;23.23;30.52
56992;BME280;42885;49.754;18.636;2023-04-23T08:52:52;97798.64;;;23.36;30.63
56992;BME280;42885;49.754;18.636;2023-04-23T08:55:24;97788.81;;;23.58;31.50
56992;BME280;42885;49.754;18.636;2023-04-23T08:57:57;97792.20;;;23.78;30.64
56992;BME280;42885;49.754;18.636;2023-04-23T09:00:29;97798.69;;;23.58;29.72
56992;BME280;42885;49.754;18.636;2023-04-23T09:03:00;97791.94;;;23.62;31.24
56992;BME280;42885;49.754;18.636;2023-04-23T09:05:31;97784.64;;;23.92;30.47
56992;BME280;42885;49.754;18.636;2023-04-23T09:08:03;97791.13;;;23.83;30.25
56992;BME280;42885;49.754;18.636;2023-04-23T09:10:39;97787.50;;;23.17;31.54
56992;BME280;42885;49.754;18.636;2023-04-23T09:13:14;97793.03;;;23.01;31.81
56992;BME280;42885;49.754;18.636;2023-04-23T09:15:45;97790.69;;;23.43;30.45
56992;BME280;42885;49.754;18.636;2023-04-23T09:18:16;97786.62;;;23.73;30.48
56992;BME280;42885;49.754;18.636;2023-04-23T09:20:49;97783.20;;;23.53;29.76
56992;BME280;42885;49.754;18.636;2023-04-23T09:23:21;97778.92;;;23.74;29.31
56992;BME280;42885;49.754;18.636;2023-04-23T09:25:53;97776.63;;;23.92;29.29
56992;BME280;42885;49.754;18.636;2023-04-23T09:28:34;97766.86;;;24.50;30.11
56992;BME280;42885;49.754;18.636;2023-04-23T09:31:05;97770.14;;;24.35;31.66
56992;BME280;42885;49.754;18.636;2023-04-23T09:33:37;97770.14;;;24.35;31.66
56992;BME280;42885;49.754;18.636;2023-04-23T09:36:16;97772.36;;;23.65;30.37
56992;BME280;42885;49.754;18.636;2023-04-23T09:38:49;97778.55;;;23.25;31.32
56992;BME280;42885;49.754;18.636;2023-04-23T09:41:24;97783.91;;;23.10;30.58
56992;BME280;42885;49.754;18.636;2023-04-23T09:43:56;97777.02;;;24.00;31.14
56992;BME280;42885;49.754;18.636;2023-04-23T09:46:38;97769.75;;;24.27;30.58
56992;BME280;42885;49.754;18.636;2023-04-23T09:49:11;97758.74;;;24.54;29.90
56992;BME280;42885;49.754;18.636;2023-04-23T09:51:45;97756.48;;;24.69;29.41
56992;BME280;42885;49.754;18.636;2023-04-23T09:54:23;97749.69;;;24.38;28.81
56992;BME280;42885;49.754;18.636;2023-04-23T09:56:52;97748.47;;;24.40;29.50
56992;BME280;42885;49.754;18.636;2023-04-23T09:59:27;97747.23;;;24.54;29.18
56992;BME280;42885;49.754;18.636;2023-04-23T10:02:04;97753.43;;;24.61;30.29
56992;BME280;42885;49.754;18.636;2023-04-23T10:04:37;97747.52;;;24.66;28.91
56992;BME280;42885;49.754;18.636;2023-04-23T10:07:09;97749.36;;;25.00;31.23
56992;BME280;42885;49.754;18.636;2023-04-23T10:09:41;97740.13;;;25.10;29.51
56992;BME280;42885;49.754;18.636;2023-04-23T10:12:13;97728.09;;;25.48;29.24
56992;BME280;42885;49.754;18.636;2023-04-23T10:14:45;97728.66;;;25.61;29.62
56992;BME280;42885;49.754;18.636;2023-04-23T10:17:18;97731.11;;;25.49;28.92
56992;BME280;42885;49.754;18.636;2023-04-23T10:19:49;97736.12;;;25.41;29.63
56992;BME280;42885;49.754;18.636;2023-04-23T10:22:22;97717.44;;;25.54;28.56
56992;BME280;42885;49.754;18.636;2023-04-23T10:24:56;97721.81;;;25.96;30.26
56992;BME280;42885;49.754;18.636;2023-04-23T10:27:29;97708.83;;;26.40;27.45
56992;BME280;42885;49.754;18.636;2023-04-23T10:30:00;97714.53;;;26.71;27.35
56992;BME280;42885;49.754;18.636;2023-04-23T10:32:33;97707.98;;;26.76;27.58
56992;BME280;42885;49.754;18.636;2023-04-23T10:35:06;97707.14;;;26.96;26.89
56992;BME280;42885;49.754;18.636;2023-04-23T10:37:38;97698.11;;;27.22;27.54
56992;BME280;42885;49.754;18.636;2023-04-23T10:40:12;97701.04;;;26.61;27.43
56992;BME280;42885;49.754;18.636;2023-04-23T10:42:44;97695.73;;;26.28;27.22
56992;BME280;42885;49.754;18.636;2023-04-23T10:45:17;97696.41;;;26.52;27.11
56992;BME280;42885;49.754;18.636;2023-04-23T10:47:48;97695.41;;;27.29;28.15
56992;BME280;42885;49.754;18.636;2023-04-23T10:50:27;97695.61;;;27.82;26.73
56992;BME280;42885;49.754;18.636;2023-04-23T10:52:58;97704.01;;;27.44;26.39
56992;BME280;42885;49.754;18.636;2023-04-23T10:55:30;97700.79;;;27.29;26.37
56992;BME280;42885;49.754;18.636;2023-04-23T10:58:06;97686.63;;;28.05;25.98
56992;BME280;42885;49.754;18.636;2023-04-23T11:00:44;97688.02;;;27.72;25.59
56992;BME280;42885;49.754;18.636;2023-04-23T11:06:10;97678.95;;;28.08;26.18
56992;BME280;42885;49.754;18.636;2023-04-23T11:08:52;97678.45;;;28.90;25.52
56992;BME280;42885;49.754;18.636;2023-04-23T11:11:39;97682.29;;;28.38;25.31
56992;BME280;42885;49.754;18.636;2023-04-23T11:14:13;97682.61;;;28.95;24.85
56992;BME280;42885;49.754;18.636;2023-04-23T11:16:44;97686.88;;;28.47;25.46
56992;BME280;42885;49.754;18.636;2023-04-23T11:19:15;97678.89;;;29.18;24.48
56992;BME280;42885;49.754;18.636;2023-04-23T11:24:40;97687.62;;;28.36;25.69
56992;BME280;42885;49.754;18.636;2023-04-23T11:27:14;97684.37;;;27.05;25.60
56992;BME280;42885;49.754;18.636;2023-04-23T11:29:46;97683.90;;;26.62;27.18
56992;BME280;42885;49.754;18.636;2023-04-23T11:32:17;97681.29;;;26.02;27.36
56992;BME280;42885;49.754;18.636;2023-04-23T11:34:47;97686.33;;;26.07;28.00
56992;BME280;42885;49.754;18.636;2023-04-23T11:37:19;97682.73;;;26.31;27.47
56992;BME280;42885;49.754;18.636;2023-04-23T11:39:51;97683.13;;;26.01;27.85
56992;BME280;42885;49.754;18.636;2023-04-23T11:42:22;97675.83;;;25.92;27.58
56992;BME280;42885;49.754;18.636;2023-04-23T11:44:53;97678.40;;;25.69;28.09
56992;BME280;42885;49.754;18.636;2023-04-23T11:47:25;97684.08;;;25.33;27.77
56992;BME280;42885;49.754;18.636;2023-04-23T11:49:56;97678.79;;;25.60;27.46
56992;BME280;42885;49.754;18.636;2023-04-23T11:52:27;97675.19;;;25.63;27.19
56992;BME280;42885;49.754;18.636;2023-04-23T11:55:04;97669.13;;;25.92;27.20
56992;BME280;42885;49.754;18.636;2023-04-23T11:57:36;97664.73;;;27.27;26.70
56992;BME280;42885;49.754;18.636;2023-04-23T12:00:16;97663.54;;;28.41;25.49
56992;BME280;42885;49.754;18.636;2023-04-23T12:02:51;97654.73;;;30.32;24.64
56992;BME280;42885;49.754;18.636;2023-04-23T12:05:27;97659.52;;;28.69;26.24
56992;BME280;42885;49.754;18.636;2023-04-23T12:08:09;97659.92;;;27.68;25.36
56992;BME280;42885;49.754;18.636;2023-04-23T12:10:52;97651.73;;;28.70;24.77
56992;BME280;42885;49.754;18.636;2023-04-23T12:13:25;97642.70;;;29.13;23.99
56992;BME280;42885;49.754;18.636;2023-04-23T12:15:59;97650.23;;;28.65;24.21
56992;BME280;42885;49.754;18.636;2023-04-23T12:18:31;97646.64;;;28.34;25.17
56992;BME280;42885;49.754;18.636;2023-04-23T12:21:12;97653.78;;;27.29;25.10
56992;BME280;42885;49.754;18.636;2023-04-23T12:23:43;97660.27;;;26.85;26.03
56992;BME280;42885;49.754;18.636;2023-04-23T12:26:15;97655.08;;;26.37;26.49
56992;BME280;42885;49.754;18.636;2023-04-23T12:28:53;97657.80;;;26.53;26.18
56992;BME280;42885;49.754;18.636;2023-04-23T12:31:28;97658.44;;;26.78;26.93
56992;BME280;42885;49.754;18.636;2023-04-23T12:34:07;97654.91;;;26.85;25.99
56992;BME280;42885;49.754;18.636;2023-04-23T12:36:38;97652.97;;;26.76;25.34
56992;BME280;42885;49.754;18.636;2023-04-23T12:41:53;97646.09;;;28.15;25.24
56992;BME280;42885;49.754;18.636;2023-04-23T12:44:25;97650.69;;;26.57;25.46
56992;BME280;42885;49.754;18.636;2023-04-23T12:46:58;97649.66;;;26.58;25.70
56992;BME280;42885;49.754;18.636;2023-04-23T12:49:30;97639.68;;;27.17;25.26
56992;BME280;42885;49.754;18.636;2023-04-23T12:52:02;97637.30;;;27.18;25.51
56992;BME280;42885;49.754;18.636;2023-04-23T12:54:34;97633.31;;;26.96;25.61
56992;BME280;42885;49.754;18.636;2023-04-23T12:57:16;97628.89;;;27.98;25.14
56992;BME280;42885;49.754;18.636;2023-04-23T12:59:41;97637.64;;;26.67;25.74
56992;BME280;42885;49.754;18.636;2023-04-23T13:02:12;97630.66;;;26.23;25.83
56992;BME280;42885;49.754;18.636;2023-04-23T13:04:43;97635.22;;;26.75;25.64
56992;BME280;42885;49.754;18.636;2023-04-23T13:07:15;97625.64;;;27.47;24.51
56992;BME280;42885;49.754;18.636;2023-04-23T13:09:45;97623.88;;;26.73;25.55
56992;BME280;42885;49.754;18.636;2023-04-23T13:12:19;97623.63;;;26.65;25.57
56992;BME280;42885;49.754;18.636;2023-04-23T13:14:50;97619.64;;;26.51;26.23
56992;BME280;42885;49.754;18.636;2023-04-23T13:17:21;97623.19;;;26.68;25.45
56992;BME280;42885;49.754;18.636;2023-04-23T13:19:54;97608.18;;;27.98;24.40
56992;BME280;42885;49.754;18.636;2023-04-23T13:22:25;97607.92;;;31.54;22.69